createdAt,value
2022-11-04T00:02:47.188Z,99048.65
2022-11-04T00:06:09.602Z,99043.13
2022-11-04T00:09:29.198Z,99039.19
2022-11-04T00:12:37.968Z,99032.73
2022-11-04T00:15:58.544Z,99033.05
2022-11-04T00:19:01.167Z,99032.77
2022-11-04T00:22:21.900Z,99022.98
2022-11-04T00:25:42.834Z,99024.69
2022-11-04T00:28:44.727Z,99022.20
2022-11-04T00:32:05.291Z,99024.45
2022-11-04T00:35:07.709Z,99023.11
2022-11-04T00:38:09.837Z,99023.02
2022-11-04T00:41:27.724Z,99015.13
2022-11-04T00:44:30.108Z,99012.30
2022-11-04T00:47:32.009Z,99007.89
2022-11-04T00:50:33.737Z,99000.04
2022-11-04T00:53:35.885Z,98998.73
2022-11-04T00:56:38.523Z,98990.11
2022-11-04T00:59:40.707Z,98980.39
2022-11-04T01:02:42.497Z,98971.81
2022-11-04T01:05:44.297Z,98962.42
2022-11-04T01:08:46.759Z,98963.23
2022-11-04T01:11:48.958Z,98968.39
2022-11-04T01:14:50.627Z,98961.09
2022-11-04T01:17:52.366Z,98957.10
2022-11-04T01:20:54.206Z,98955.72
2022-11-04T01:23:56.114Z,98954.02
2022-11-04T01:26:57.803Z,98950.97
2022-11-04T01:29:59.560Z,98953.34
2022-11-04T01:33:01.369Z,98956.38
2022-11-04T01:36:04.036Z,98949.20
2022-11-04T01:39:05.935Z,98932.30
2022-11-04T01:42:13.150Z,98924.17
2022-11-04T01:45:17.366Z,98914.84
2022-11-04T01:48:26.108Z,98915.63
2022-11-04T01:51:30.260Z,98915.52
2022-11-04T01:54:32.641Z,98914.27
2022-11-04T01:57:37.479Z,98911.44
2022-11-04T02:00:40.943Z,98904.77
2022-11-04T02:03:55.131Z,98905.18
2022-11-04T02:07:01.744Z,98898.45
2022-11-04T02:10:04.218Z,98892.39
2022-11-04T02:13:06.209Z,98880.79
2022-11-04T02:16:24.075Z,98877.50
2022-11-04T02:19:57.101Z,98870.02
2022-11-04T02:23:40.062Z,98866.08
2022-11-04T02:27:06.094Z,98860.00
2022-11-04T02:30:09.948Z,98857.30
2022-11-04T02:33:17.672Z,98856.08
2022-11-04T02:36:32.738Z,98855.92
2022-11-04T02:39:47.242Z,98852.70
2022-11-04T02:43:01.728Z,98854.88
2022-11-04T02:46:07.530Z,98842.56
2022-11-04T02:49:15.669Z,98833.95
2022-11-04T02:52:27.885Z,98834.41
2022-11-04T02:55:31.294Z,98835.27
2022-11-04T02:58:40.779Z,98840.19
2022-11-04T03:01:44.389Z,98843.17
2022-11-04T03:04:49.338Z,98838.60
2022-11-04T03:07:52.880Z,98833.14
2022-11-04T03:10:59.442Z,98826.14
2022-11-04T03:14:26.691Z,98827.63
2022-11-04T03:17:37.323Z,98829.29
2022-11-04T03:20:41.037Z,98826.13
2022-11-04T03:23:42.964Z,98820.77
2022-11-04T03:27:07.229Z,98814.99
2022-11-04T03:30:12.032Z,98816.02
2022-11-04T03:33:34.346Z,98815.48
2022-11-04T03:36:36.097Z,98816.45
2022-11-04T03:39:37.854Z,98812.90
2022-11-04T03:42:44.954Z,98816.33
2022-11-04T03:45:47.297Z,98819.64
2022-11-04T03:48:52.149Z,98816.21
2022-11-04T03:51:54.200Z,98819.69
2022-11-04T03:54:55.960Z,98817.46
2022-11-04T03:58:09.054Z,98809.57
2022-11-04T04:01:18.456Z,98805.72
2022-11-04T04:04:29.928Z,98805.77
2022-11-04T04:07:37.732Z,98800.95
2022-11-04T04:10:51.431Z,98801.28
2022-11-04T04:14:40.781Z,98783.52
2022-11-04T04:17:52.072Z,98777.05
2022-11-04T04:20:55.436Z,98773.59
2022-11-04T04:24:18.482Z,98768.87
2022-11-04T04:27:33.941Z,98768.00
2022-11-04T04:30:36.187Z,98756.85
2022-11-04T04:33:38.657Z,98747.31
2022-11-04T04:37:08.440Z,98751.13
2022-11-04T04:40:32.639Z,98743.94
2022-11-04T04:43:53.357Z,98744.83
2022-11-04T04:46:56.098Z,98751.30
2022-11-04T04:49:59.803Z,98755.48
2022-11-04T04:53:04.202Z,98749.55
2022-11-04T04:56:06.037Z,98741.06
2022-11-04T04:59:07.864Z,98733.96
2022-11-04T05:02:09.612Z,98731.08
2022-11-04T05:05:13.512Z,98733.02
2022-11-04T05:08:15.166Z,98727.17
2022-11-04T05:11:16.682Z,98727.53
2022-11-04T05:14:18.476Z,98721.58
2022-11-04T05:17:20.536Z,98717.46
2022-11-04T05:20:22.796Z,98721.95
2022-11-04T05:23:24.687Z,98716.95
2022-11-04T05:26:26.404Z,98712.03
2022-11-04T05:29:28.123Z,98706.23
2022-11-04T05:32:31.480Z,98707.32
2022-11-04T05:35:33.920Z,98699.02
2022-11-04T05:38:35.868Z,98690.75
2022-11-04T05:41:37.491Z,98686.61
2022-11-04T05:44:39.241Z,98682.40
2022-11-04T05:47:41.349Z,98689.23
2022-11-04T05:50:43.080Z,98693.92
2022-11-04T05:53:44.837Z,98706.94
2022-11-04T05:56:46.883Z,98705.54
2022-11-04T05:59:48.604Z,98708.13
2022-11-04T06:02:50.461Z,98710.06
2022-11-04T06:05:52.103Z,98709.36
2022-11-04T06:08:53.876Z,98710.98
2022-11-04T06:11:55.585Z,98714.89
2022-11-04T06:14:57.140Z,98717.64
2022-11-04T06:17:58.933Z,98721.94
2022-11-04T06:21:29.986Z,98723.26
2022-11-04T06:24:31.659Z,98719.74
2022-11-04T06:27:33.165Z,98720.95
2022-11-04T06:30:34.908Z,98721.48
2022-11-04T06:33:37.154Z,98724.17
2022-11-04T06:36:39.445Z,98722.59
2022-11-04T06:39:41.090Z,98723.42
2022-11-04T06:42:43.289Z,98718.50
2022-11-04T06:45:45.130Z,98720.33
2022-11-04T06:48:46.726Z,98719.83
2022-11-04T06:51:48.603Z,98723.34
2022-11-04T06:54:50.256Z,98721.71
2022-11-04T06:57:52.064Z,98717.71
2022-11-04T07:00:53.952Z,98715.09
2022-11-04T07:03:58.916Z,98713.76
2022-11-04T07:07:00.540Z,98712.39
2022-11-04T07:10:02.191Z,98706.30
2022-11-04T07:13:03.880Z,98701.77
2022-11-04T07:16:06.612Z,98705.28
2022-11-04T07:19:08.406Z,98697.09
2022-11-04T07:22:10.396Z,98686.98
2022-11-04T07:25:12.084Z,98682.08
2022-11-04T07:28:13.975Z,98682.28
2022-11-04T07:31:17.206Z,98672.42
2022-11-04T07:34:18.894Z,98675.11
2022-11-04T07:37:20.782Z,98676.09
2022-11-04T07:40:22.555Z,98671.71
2022-11-04T07:43:24.480Z,98671.44
2022-11-04T07:46:26.579Z,98658.80
2022-11-04T07:49:28.202Z,98654.60
2022-11-04T07:52:29.789Z,98658.97
2022-11-04T07:55:31.728Z,98657.52
2022-11-04T07:58:34.108Z,98659.70
2022-11-04T08:01:35.833Z,98653.16
2022-11-04T08:04:37.973Z,98649.52
2022-11-04T08:07:40.633Z,98645.68
2022-11-04T08:10:42.206Z,98646.88
2022-11-04T08:13:44.629Z,98643.52
2022-11-04T08:16:46.267Z,98642.83
2022-11-04T08:19:47.951Z,98640.84
2022-11-04T08:22:49.655Z,98636.64
2022-11-04T08:25:51.450Z,98632.77
2022-11-04T08:28:53.184Z,98632.62
2022-11-04T08:31:55.052Z,98634.34
2022-11-04T08:34:56.634Z,98629.88
2022-11-04T08:37:58.219Z,98629.74
2022-11-04T08:41:00.821Z,98620.26
2022-11-04T08:44:04.414Z,98616.33
2022-11-04T08:47:06.286Z,98610.23
2022-11-04T08:50:08.185Z,98603.31
2022-11-04T08:53:10.373Z,98599.23
2022-11-04T08:56:26.177Z,98598.80
2022-11-04T08:59:28.376Z,98586.36
2022-11-04T09:02:30.213Z,98580.18
2022-11-04T09:05:32.430Z,98573.02
2022-11-04T09:08:34.186Z,98574.01
2022-11-04T09:11:39.542Z,98577.27
2022-11-04T09:14:41.282Z,98572.59
2022-11-04T09:17:44.432Z,98570.05
2022-11-04T09:20:46.187Z,98563.94
2022-11-04T09:23:48.009Z,98568.33
2022-11-04T09:26:49.641Z,98561.60
2022-11-04T09:29:51.272Z,98561.54
2022-11-04T09:32:53.169Z,98556.96
2022-11-04T09:35:57.896Z,98555.27
2022-11-04T09:38:59.579Z,98554.75
2022-11-04T09:42:18.081Z,98550.09
2022-11-04T09:45:24.222Z,98547.58
2022-11-04T09:48:30.003Z,98547.96
2022-11-04T09:51:53.179Z,98547.26
2022-11-04T09:55:12.252Z,98538.94
2022-11-04T09:58:16.901Z,98538.12
2022-11-04T10:01:18.658Z,98533.41
2022-11-04T10:04:32.685Z,98529.02
2022-11-04T10:07:41.633Z,98522.67
2022-11-04T10:10:51.901Z,98519.05
2022-11-04T10:14:13.870Z,98519.45
2022-11-04T10:17:47.646Z,98511.73
2022-11-04T10:21:11.634Z,98511.41
2022-11-04T10:24:20.716Z,98506.09
2022-11-04T10:27:26.226Z,98506.40
2022-11-04T10:30:29.462Z,98507.22
2022-11-04T10:33:52.584Z,98510.55
2022-11-04T10:36:56.083Z,98504.36
2022-11-04T10:40:09.640Z,98502.16
2022-11-04T10:43:14.272Z,98500.35
2022-11-04T10:46:28.205Z,98499.89
2022-11-04T10:50:27.613Z,98493.02
2022-11-04T10:53:28.911Z,98491.73
2022-11-04T10:56:40.673Z,98483.17
2022-11-04T11:00:02.801Z,98480.18
2022-11-04T11:03:42.291Z,98471.98
2022-11-04T11:06:50.015Z,98469.13
2022-11-04T11:09:57.240Z,98466.59
2022-11-04T11:13:02.376Z,98467.19
2022-11-04T11:16:06.829Z,98472.23
2022-11-04T11:19:15.511Z,98465.38
2022-11-04T11:22:48.122Z,98464.53
2022-11-04T11:25:50.905Z,98461.25
2022-11-04T11:28:59.192Z,98462.07
2022-11-04T11:32:01.053Z,98460.30
2022-11-04T11:35:07.756Z,98459.00
2022-11-04T11:38:27.988Z,98460.34
2022-11-04T11:41:31.665Z,98453.44
2022-11-04T11:44:48.339Z,98451.44
2022-11-04T11:47:55.043Z,98448.75
2022-11-04T11:50:59.956Z,98443.89
2022-11-04T11:54:06.751Z,98448.80
2022-11-04T11:57:35.836Z,98443.50
2022-11-04T12:00:48.337Z,98441.54
2022-11-04T12:10:51.722Z,98431.95
2022-11-04T12:13:58.298Z,98428.48
2022-11-04T12:17:30.016Z,98424.98
2022-11-04T12:20:50.400Z,98423.33
2022-11-04T12:23:59.336Z,98421.83
2022-11-04T12:27:39.862Z,98420.89
2022-11-04T12:30:54.085Z,98419.11
2022-11-04T12:34:25.209Z,98416.47
2022-11-04T12:37:32.915Z,98412.05
2022-11-04T12:41:04.908Z,98409.73
2022-11-04T12:44:30.232Z,98400.35
2022-11-04T12:47:41.601Z,98401.74
2022-11-04T12:50:58.907Z,98408.27
2022-11-04T12:54:35.914Z,98402.85
2022-11-04T12:57:43.632Z,98403.85
2022-11-04T13:00:48.725Z,98407.88
2022-11-04T13:03:55.362Z,98409.04
2022-11-04T13:07:19.672Z,98408.69
2022-11-04T13:10:50.409Z,98404.29
2022-11-04T13:14:23.943Z,98402.80
2022-11-04T13:17:39.507Z,98403.16
2022-11-04T13:20:46.186Z,98400.90
2022-11-04T13:24:04.514Z,98405.08
2022-11-04T13:27:16.593Z,98407.59
2022-11-04T13:30:22.999Z,98399.75
2022-11-04T13:33:35.202Z,98393.70
2022-11-04T13:36:41.444Z,98392.96
2022-11-04T13:39:54.950Z,98401.02
2022-11-04T13:43:37.196Z,98404.33
2022-11-04T13:46:39.084Z,98400.02
2022-11-04T13:49:40.812Z,98407.82
2022-11-04T13:52:52.640Z,98413.19
2022-11-04T13:56:01.304Z,98408.89
2022-11-04T13:59:17.046Z,98408.98
2022-11-04T14:02:19.235Z,98406.77
2022-11-04T14:05:31.385Z,98410.28
2022-11-04T14:08:33.413Z,98417.52
2022-11-04T14:12:19.857Z,98415.33
2022-11-04T14:16:00.052Z,98420.04
2022-11-04T14:19:44.371Z,98419.79
2022-11-04T14:22:54.469Z,98415.84
2022-11-04T14:26:04.303Z,98421.70
2022-11-04T14:29:18.299Z,98429.52
2022-11-04T14:32:27.401Z,98427.88
2022-11-04T14:35:30.583Z,98420.08
2022-11-04T14:38:34.108Z,98415.46
2022-11-04T14:42:01.943Z,98410.41
2022-11-04T14:45:08.478Z,98411.54
2022-11-04T14:48:18.612Z,98410.21
2022-11-04T14:51:31.692Z,98409.64
2022-11-04T14:54:34.961Z,98401.07
2022-11-04T14:57:51.372Z,98399.65
2022-11-04T15:00:56.207Z,98399.59
2022-11-04T15:04:12.160Z,98406.02
2022-11-04T15:07:36.459Z,98409.25
2022-11-04T15:10:38.019Z,98408.39
2022-11-04T15:13:48.636Z,98407.27
2022-11-04T15:16:53.576Z,98405.91
2022-11-04T15:19:57.530Z,98400.34
2022-11-04T15:23:01.958Z,98400.48
2022-11-04T15:26:04.797Z,98402.86
2022-11-04T15:29:10.045Z,98410.06
2022-11-04T15:32:18.167Z,98406.91
2022-11-04T15:35:20.089Z,98399.89
2022-11-04T15:38:24.531Z,98408.42
2022-11-04T15:41:46.557Z,98419.11
2022-11-04T15:44:53.740Z,98422.96
2022-11-04T15:48:23.445Z,98417.98
2022-11-04T15:51:25.877Z,98418.33
2022-11-04T15:54:39.806Z,98417.67
2022-11-04T15:57:42.223Z,98420.35
2022-11-04T16:00:52.903Z,98418.20
2022-11-04T16:03:57.272Z,98418.41
2022-11-04T16:07:04.781Z,98420.55
2022-11-04T16:10:32.620Z,98419.31
2022-11-04T16:13:34.286Z,98418.50
2022-11-04T16:16:36.143Z,98416.81
2022-11-04T16:19:38.081Z,98411.41
2022-11-04T16:22:40.915Z,98408.95
2022-11-04T16:25:42.616Z,98403.78
2022-11-04T16:28:44.363Z,98395.59
2022-11-04T16:31:46.085Z,98397.64
2022-11-04T16:34:53.694Z,98400.31
2022-11-04T16:37:56.333Z,98398.24
2022-11-04T16:40:58.099Z,98390.41
2022-11-04T16:43:59.932Z,98383.59
2022-11-04T16:47:02.255Z,98388.09
2022-11-04T16:50:14.611Z,98394.16
2022-11-04T16:53:16.921Z,98399.36
2022-11-04T16:56:21.431Z,98399.58
2022-11-04T16:59:23.618Z,98399.77
2022-11-04T17:02:32.025Z,98398.74
2022-11-04T17:05:33.863Z,98403.48
2022-11-04T17:08:35.852Z,98402.01
2022-11-04T17:11:37.507Z,98398.58
2022-11-04T17:14:39.194Z,98388.59
2022-11-04T17:17:41.378Z,98394.62
2022-11-04T17:20:50.175Z,98399.17
2022-11-04T17:23:53.016Z,98401.66
2022-11-04T17:26:54.776Z,98403.55
2022-11-04T17:29:56.524Z,98406.79
2022-11-04T17:32:58.341Z,98405.09
2022-11-04T17:36:04.739Z,98397.86
2022-11-04T17:39:09.118Z,98397.56
2022-11-04T17:42:29.591Z,98399.59
2022-11-04T17:45:32.072Z,98394.21
2022-11-04T17:48:33.774Z,98393.83
2022-11-04T17:51:36.447Z,98393.59
2022-11-04T17:54:38.101Z,98391.02
2022-11-04T17:57:39.753Z,98390.15
2022-11-04T18:00:41.570Z,98387.89
2022-11-04T18:03:43.694Z,98387.27
2022-11-04T18:06:45.477Z,98391.10
2022-11-04T18:09:47.216Z,98396.17
2022-11-04T18:12:48.928Z,98394.67
2022-11-04T18:15:50.602Z,98384.95
2022-11-04T18:18:52.330Z,98386.92
2022-11-04T18:21:54.018Z,98388.63
2022-11-04T18:24:55.842Z,98387.80
2022-11-04T18:27:57.769Z,98384.40
2022-11-04T18:30:59.386Z,98381.01
2022-11-04T18:34:03.006Z,98383.83
2022-11-04T18:37:04.901Z,98381.89
2022-11-04T18:40:07.515Z,98392.30
2022-11-04T18:43:09.631Z,98399.28
2022-11-04T18:46:14.528Z,98393.35
2022-11-04T18:49:17.316Z,98392.19
2022-11-04T18:52:19.051Z,98398.86
2022-11-04T18:55:20.627Z,98403.02
2022-11-04T18:58:22.631Z,98405.44
2022-11-04T19:01:29.732Z,98402.66
2022-11-04T19:04:32.011Z,98399.09
2022-11-04T19:07:33.729Z,98399.45
2022-11-04T19:10:59.776Z,98406.27
2022-11-04T19:14:09.504Z,98405.63
2022-11-04T19:17:11.860Z,98405.92
2022-11-04T19:20:14.611Z,98407.40
2022-11-04T19:23:16.401Z,98410.70
2022-11-04T19:26:20.378Z,98418.25
2022-11-04T19:29:22.186Z,98423.53
2022-11-04T19:32:24.044Z,98429.29
2022-11-04T19:35:25.741Z,98428.77
2022-11-04T19:38:27.904Z,98433.45
2022-11-04T19:41:48.285Z,98433.98
2022-11-04T19:44:50.091Z,98439.11
2022-11-04T19:47:51.752Z,98442.37
2022-11-04T19:50:53.595Z,98443.55
2022-11-04T19:53:55.483Z,98442.67
2022-11-04T19:56:58.090Z,98440.60
2022-11-04T20:00:00.324Z,98439.00
2022-11-04T20:03:02.076Z,98437.96
2022-11-04T20:06:04.085Z,98442.45
2022-11-04T20:09:07.586Z,98444.25
2022-11-04T20:12:27.780Z,98446.95
2022-11-04T20:15:29.819Z,98452.46
2022-11-04T20:18:31.614Z,98456.29
2022-11-04T20:21:35.381Z,98455.03
2022-11-04T20:24:37.068Z,98451.56
2022-11-04T20:27:38.941Z,98455.66
2022-11-04T20:30:42.080Z,98456.38
2022-11-04T20:33:44.191Z,98451.52
2022-11-04T20:36:46.053Z,98447.80
2022-11-04T20:39:47.833Z,98447.83
2022-11-04T20:42:49.648Z,98450.73
2022-11-04T20:45:52.421Z,98450.58
2022-11-04T20:48:55.420Z,98450.27
2022-11-04T20:51:57.103Z,98451.08
2022-11-04T20:54:58.729Z,98444.96
2022-11-04T20:58:00.393Z,98442.66
2022-11-04T21:01:03.359Z,98445.89
2022-11-04T21:04:07.827Z,98437.60
2022-11-04T21:07:09.859Z,98442.65
2022-11-04T21:10:11.559Z,98449.57
2022-11-04T21:13:13.241Z,98460.10
2022-11-04T21:16:16.869Z,98456.06
2022-11-04T21:19:20.342Z,98450.94
2022-11-04T21:22:22.271Z,98453.57
2022-11-04T21:25:24.103Z,98459.00
2022-11-04T21:28:26.317Z,98461.09
2022-11-04T21:31:30.009Z,98470.20
2022-11-04T21:34:31.714Z,98479.40
2022-11-04T21:37:36.866Z,98477.92
2022-11-04T21:40:38.854Z,98477.52
2022-11-04T21:43:41.266Z,98478.29
2022-11-04T21:46:42.882Z,98479.20
2022-11-04T21:49:44.524Z,98484.41
2022-11-04T21:52:46.625Z,98496.55
2022-11-04T21:55:48.252Z,98498.36
2022-11-04T21:58:51.774Z,98490.77
2022-11-04T22:01:53.537Z,98483.55
2022-11-04T22:04:55.443Z,98484.61
2022-11-04T22:08:15.866Z,98491.21
2022-11-04T22:11:20.287Z,98491.33
2022-11-04T22:14:22.141Z,98484.54
2022-11-04T22:17:23.835Z,98476.27
2022-11-04T22:20:25.516Z,98479.88
2022-11-04T22:23:27.120Z,98490.38
2022-11-04T22:26:31.444Z,98489.89
2022-11-04T22:29:34.334Z,98488.54
2022-11-04T22:32:36.023Z,98497.20
2022-11-04T22:35:37.706Z,98507.52
2022-11-04T22:38:41.742Z,98506.89
2022-11-04T22:41:43.953Z,98498.10
2022-11-04T22:44:45.742Z,98500.38
2022-11-04T22:47:47.744Z,98505.73
2022-11-04T22:50:58.328Z,98507.10
2022-11-04T22:54:07.678Z,98504.82
2022-11-04T22:57:10.262Z,98505.83
2022-11-04T23:00:12.514Z,98504.26
2022-11-04T23:03:14.684Z,98503.29
2022-11-04T23:06:16.915Z,98505.85
2022-11-04T23:09:18.770Z,98500.70
2022-11-04T23:12:39.123Z,98502.01
2022-11-04T23:15:59.970Z,98495.20
2022-11-04T23:19:01.751Z,98492.11
2022-11-04T23:22:22.415Z,98490.84
2022-11-04T23:25:24.741Z,98495.27
2022-11-04T23:28:45.155Z,98486.23
2022-11-04T23:31:46.954Z,98488.40
2022-11-04T23:35:07.650Z,98494.98
2022-11-04T23:38:09.403Z,98497.04
2022-11-04T23:41:29.740Z,98496.02
2022-11-04T23:44:50.208Z,98492.86
2022-11-04T23:48:14.084Z,98499.23
2022-11-04T23:51:34.534Z,98508.32
2022-11-04T23:54:55.257Z,98509.80
2022-11-04T23:58:16.021Z,98518.11
